createdAt,value
2022-10-30T00:02:14.331Z,12.14
2022-10-30T00:05:17.791Z,12.15
2022-10-30T00:08:22.504Z,12.15
2022-10-30T00:11:25.130Z,12.09
2022-10-30T00:14:27.492Z,12.04
2022-10-30T00:17:29.838Z,12.09
2022-10-30T00:20:32.447Z,12.09
2022-10-30T00:23:34.805Z,12.12
2022-10-30T00:26:37.193Z,12.14
2022-10-30T00:29:39.638Z,12.09
2022-10-30T00:32:42.934Z,12.15
2022-10-30T00:35:49.379Z,12.15
2022-10-30T00:38:52.023Z,12.18
2022-10-30T00:41:56.018Z,12.13
2022-10-30T00:44:58.638Z,12.12
2022-10-30T00:48:03.842Z,12.11
2022-10-30T00:51:10.816Z,12.19
2022-10-30T00:54:16.154Z,12.17
2022-10-30T00:57:19.811Z,12.11
2022-10-30T01:00:24.451Z,12.11
2022-10-30T01:03:29.497Z,12.08
2022-10-30T01:06:38.646Z,12.15
2022-10-30T01:09:41.731Z,12.16
2022-10-30T01:12:46.262Z,12.16
2022-10-30T01:16:29.989Z,12.11
2022-10-30T01:23:26.349Z,12.05
2022-10-30T01:27:06.606Z,12.07
2022-10-30T01:30:38.718Z,12.17
2022-10-30T01:33:47.501Z,12.13
2022-10-30T01:37:18.641Z,12.13
2022-10-30T01:40:21.300Z,12.14
2022-10-30T01:43:23.859Z,12.22
2022-10-30T01:46:47.942Z,12.30
2022-10-30T01:50:02.447Z,12.28
2022-10-30T01:53:27.280Z,12.24
2022-10-30T01:56:32.521Z,12.30
2022-10-30T01:59:44.626Z,12.19
2022-10-30T02:02:49.763Z,12.12
2022-10-30T02:05:55.669Z,12.01
2022-10-30T02:08:59.609Z,11.93
2022-10-30T02:12:02.759Z,12.03
2022-10-30T02:15:07.217Z,12.13
2022-10-30T02:18:11.719Z,11.97
2022-10-30T02:21:15.618Z,12.04
2022-10-30T02:24:19.362Z,12.01
2022-10-30T02:27:21.701Z,11.77
2022-10-30T02:30:24.230Z,11.74
2022-10-30T02:33:26.611Z,11.66
2022-10-30T02:36:29.065Z,11.62
2022-10-30T02:39:31.501Z,11.59
2022-10-30T02:42:34.936Z,11.50
2022-10-30T02:45:37.374Z,11.61
2022-10-30T02:48:40.032Z,11.64
2022-10-30T02:51:43.932Z,11.76
2022-10-30T02:54:47.901Z,11.74
2022-10-30T02:57:50.255Z,11.90
2022-10-30T03:00:53.505Z,11.85
2022-10-30T03:03:55.910Z,11.93
2022-10-30T03:06:58.687Z,11.89
2022-10-30T03:10:01.159Z,11.92
2022-10-30T03:13:05.134Z,11.79
2022-10-30T03:16:11.331Z,11.74
2022-10-30T03:19:13.733Z,11.81
2022-10-30T03:22:16.183Z,11.82
2022-10-30T03:25:23.778Z,11.79
2022-10-30T03:28:31.649Z,11.78
2022-10-30T03:31:34.173Z,11.82
2022-10-30T03:34:52.459Z,12.03
2022-10-30T03:38:01.098Z,11.92
2022-10-30T03:41:04.145Z,11.82
2022-10-30T03:44:06.541Z,11.74
2022-10-30T03:47:08.926Z,11.74
2022-10-30T03:50:16.036Z,11.69
2022-10-30T03:53:18.497Z,11.70
2022-10-30T03:56:20.859Z,11.67
2022-10-30T03:59:27.286Z,11.79
2022-10-30T04:02:50.277Z,11.79
2022-10-30T04:05:55.834Z,11.83
2022-10-30T04:08:58.538Z,11.85
2022-10-30T04:12:01.034Z,11.87
2022-10-30T04:15:04.478Z,11.87
2022-10-30T04:18:07.394Z,11.89
2022-10-30T04:21:10.613Z,11.88
2022-10-30T04:24:16.138Z,11.91
2022-10-30T04:27:20.420Z,11.93
2022-10-30T04:30:25.137Z,12.00
2022-10-30T04:33:28.739Z,12.04
2022-10-30T04:36:35.404Z,12.06
2022-10-30T04:39:42.277Z,12.01
2022-10-30T04:42:53.061Z,12.00
2022-10-30T04:45:55.858Z,12.18
2022-10-30T04:48:58.257Z,12.08
2022-10-30T04:52:00.957Z,12.08
2022-10-30T04:55:03.861Z,12.08
2022-10-30T04:58:08.160Z,11.93
2022-10-30T05:01:13.243Z,11.97
2022-10-30T05:04:15.653Z,11.98
2022-10-30T05:07:18.797Z,12.02
2022-10-30T05:10:21.207Z,11.98
2022-10-30T05:13:23.751Z,11.92
2022-10-30T05:16:26.136Z,11.82
2022-10-30T05:19:30.417Z,11.84
2022-10-30T05:22:33.396Z,11.88
2022-10-30T05:25:35.748Z,12.02
2022-10-30T05:28:41.131Z,11.90
2022-10-30T05:31:44.043Z,11.95
2022-10-30T05:35:06.550Z,11.75
2022-10-30T05:38:10.335Z,11.75
2022-10-30T05:41:13.440Z,11.79
2022-10-30T05:44:28.902Z,11.77
2022-10-30T05:47:38.533Z,11.83
2022-10-30T05:50:41.699Z,11.85
2022-10-30T05:54:01.188Z,11.90
2022-10-30T05:57:05.083Z,11.91
2022-10-30T06:00:11.534Z,11.79
2022-10-30T06:03:17.756Z,11.82
2022-10-30T06:06:21.341Z,11.84
2022-10-30T06:09:23.759Z,11.93
2022-10-30T06:12:53.202Z,11.99
2022-10-30T06:16:11.524Z,12.01
2022-10-30T06:19:34.406Z,12.08
2022-10-30T06:23:10.827Z,12.07
2022-10-30T06:26:23.908Z,12.12
2022-10-30T06:29:29.126Z,12.16
2022-10-30T06:32:31.475Z,12.11
2022-10-30T06:35:34.299Z,12.18
2022-10-30T06:38:36.828Z,12.25
2022-10-30T06:41:39.387Z,12.15
2022-10-30T06:45:05.317Z,12.19
2022-10-30T06:48:09.561Z,12.25
2022-10-30T06:51:17.093Z,12.31
2022-10-30T06:54:20.737Z,12.22
2022-10-30T06:57:35.522Z,12.13
2022-10-30T07:01:03.990Z,12.26
2022-10-30T07:04:32.550Z,12.42
2022-10-30T07:07:35.063Z,12.31
2022-10-30T07:10:38.004Z,12.33
2022-10-30T07:14:03.221Z,12.57
2022-10-30T07:17:18.385Z,12.39
2022-10-30T07:20:28.506Z,12.32
2022-10-30T07:23:30.826Z,12.36
2022-10-30T07:26:53.450Z,12.56
2022-10-30T07:30:06.654Z,12.36
2022-10-30T07:33:16.688Z,12.45
2022-10-30T07:36:33.838Z,12.42
2022-10-30T07:39:39.500Z,12.36
2022-10-30T07:42:58.695Z,12.51
2022-10-30T07:46:17.508Z,12.54
2022-10-30T07:49:38.705Z,12.33
2022-10-30T07:52:43.035Z,12.28
2022-10-30T07:55:45.527Z,12.30
2022-10-30T07:59:06.441Z,12.32
2022-10-30T08:02:32.649Z,12.27
2022-10-30T08:05:49.348Z,12.17
2022-10-30T08:09:07.307Z,12.24
2022-10-30T08:12:10.005Z,12.30
2022-10-30T08:15:12.557Z,12.50
2022-10-30T08:18:15.293Z,12.71
2022-10-30T08:21:18.661Z,12.65
2022-10-30T08:24:31.473Z,12.63
2022-10-30T08:27:35.365Z,12.77
2022-10-30T08:30:39.047Z,12.76
2022-10-30T08:33:51.073Z,12.74
2022-10-30T08:37:07.958Z,12.81
2022-10-30T08:40:11.428Z,12.83
2022-10-30T08:43:38.907Z,12.93
2022-10-30T08:46:41.239Z,13.03
2022-10-30T08:49:43.906Z,13.15
2022-10-30T08:52:50.721Z,13.11
2022-10-30T08:55:56.766Z,13.17
2022-10-30T08:59:09.501Z,13.16
2022-10-30T09:02:12.418Z,13.08
2022-10-30T09:05:33.225Z,13.13
2022-10-30T09:09:04.813Z,13.04
2022-10-30T09:12:17.959Z,13.17
2022-10-30T09:15:22.354Z,13.21
2022-10-30T09:18:30.652Z,13.21
2022-10-30T09:21:33.674Z,13.15
2022-10-30T09:24:37.420Z,13.10
2022-10-30T09:28:00.001Z,13.19
2022-10-30T09:31:08.523Z,13.32
2022-10-30T09:34:13.722Z,13.23
2022-10-30T09:37:37.266Z,13.15
2022-10-30T09:40:54.761Z,13.02
2022-10-30T09:44:15.444Z,13.08
2022-10-30T09:47:23.476Z,13.20
2022-10-30T09:50:35.710Z,13.23
2022-10-30T09:54:09.065Z,13.34
2022-10-30T09:57:29.761Z,13.29
2022-10-30T10:00:38.991Z,13.46
2022-10-30T10:04:03.901Z,13.42
2022-10-30T10:07:32.974Z,13.21
2022-10-30T10:11:00.286Z,13.09
2022-10-30T10:14:31.498Z,12.98
2022-10-30T10:17:37.519Z,13.09
2022-10-30T10:20:43.594Z,13.16
2022-10-30T10:23:51.348Z,13.25
2022-10-30T10:27:13.124Z,13.27
2022-10-30T10:30:21.330Z,13.34
2022-10-30T10:33:45.614Z,13.31
2022-10-30T10:37:16.112Z,13.41
2022-10-30T10:40:22.110Z,13.45
2022-10-30T10:43:50.446Z,13.51
2022-10-30T10:47:17.672Z,13.31
2022-10-30T10:50:27.294Z,13.21
2022-10-30T10:53:40.722Z,13.30
2022-10-30T10:56:46.535Z,13.33
2022-10-30T10:59:55.161Z,13.54
2022-10-30T11:03:07.394Z,13.53
2022-10-30T11:06:32.602Z,13.50
2022-10-30T11:09:35.163Z,13.13
2022-10-30T11:12:37.673Z,12.91
2022-10-30T11:15:50.346Z,12.96
2022-10-30T11:18:58.051Z,13.03
2022-10-30T11:22:01.253Z,13.25
2022-10-30T11:25:26.933Z,13.23
2022-10-30T11:28:38.491Z,13.36
2022-10-30T11:31:43.205Z,13.38
2022-10-30T11:34:45.569Z,13.23
2022-10-30T11:38:12.238Z,12.99
2022-10-30T11:41:15.073Z,13.15
2022-10-30T11:44:17.513Z,13.19
2022-10-30T11:47:27.591Z,13.43
2022-10-30T11:50:31.767Z,13.40
2022-10-30T11:53:42.817Z,13.39
2022-10-30T11:56:49.091Z,13.40
2022-10-30T11:59:58.220Z,13.40
2022-10-30T12:03:06.262Z,13.45
2022-10-30T12:06:22.973Z,13.61
2022-10-30T12:09:25.330Z,13.58
2022-10-30T12:12:33.033Z,13.62
2022-10-30T12:15:37.389Z,13.67
2022-10-30T12:18:40.540Z,13.75
2022-10-30T12:21:48.826Z,13.86
2022-10-30T12:24:52.405Z,13.82
2022-10-30T12:28:00.724Z,13.82
2022-10-30T12:31:08.917Z,13.70
2022-10-30T12:34:46.551Z,13.69
2022-10-30T12:37:50.743Z,13.68
2022-10-30T12:41:08.388Z,13.79
2022-10-30T12:44:21.096Z,13.67
2022-10-30T12:47:32.979Z,13.65
2022-10-30T12:50:45.159Z,13.78
2022-10-30T12:54:19.514Z,13.70
2022-10-30T12:57:32.955Z,13.73
2022-10-30T13:00:52.100Z,13.72
2022-10-30T13:04:09.396Z,13.66
2022-10-30T13:07:38.597Z,13.41
2022-10-30T13:10:53.874Z,13.28
2022-10-30T13:14:00.163Z,13.30
2022-10-30T13:17:02.834Z,13.28
2022-10-30T13:20:14.045Z,13.23
2022-10-30T13:23:25.049Z,13.37
2022-10-30T13:26:33.360Z,13.36
2022-10-30T13:29:50.629Z,13.22
2022-10-30T13:33:22.021Z,13.18
2022-10-30T13:36:34.036Z,12.88
2022-10-30T13:39:52.436Z,12.82
2022-10-30T13:43:06.595Z,12.75
2022-10-30T13:46:39.726Z,12.76
2022-10-30T13:50:09.811Z,12.80
2022-10-30T13:53:22.250Z,12.86
2022-10-30T13:56:24.746Z,13.01
2022-10-30T13:59:48.464Z,12.72
2022-10-30T14:02:53.638Z,12.66
2022-10-30T14:06:10.094Z,12.68
2022-10-30T14:09:21.558Z,12.67
2022-10-30T14:12:52.908Z,12.62
2022-10-30T14:16:06.554Z,12.65
2022-10-30T14:19:16.903Z,12.63
2022-10-30T14:22:25.245Z,12.61
2022-10-30T14:25:27.587Z,12.71
2022-10-30T14:28:31.960Z,12.73
2022-10-30T14:31:36.556Z,12.79
2022-10-30T14:34:46.125Z,12.83
2022-10-30T14:37:58.293Z,12.78
2022-10-30T14:41:22.409Z,12.85
2022-10-30T14:44:49.757Z,12.82
2022-10-30T14:47:58.028Z,12.86
2022-10-30T14:51:14.349Z,12.95
2022-10-30T14:54:31.806Z,13.06
2022-10-30T14:57:53.757Z,13.03
2022-10-30T15:01:21.077Z,12.94
2022-10-30T15:04:32.474Z,12.92
2022-10-30T15:07:52.170Z,12.91
2022-10-30T15:11:42.008Z,12.94
2022-10-30T15:14:54.809Z,12.90
2022-10-30T15:18:01.393Z,12.90
2022-10-30T15:21:06.585Z,12.86
2022-10-30T15:24:18.966Z,12.84
2022-10-30T15:27:24.356Z,12.82
2022-10-30T15:30:27.652Z,12.87
2022-10-30T15:33:35.431Z,12.79
2022-10-30T15:36:42.978Z,12.69
2022-10-30T15:39:45.329Z,12.63
2022-10-30T15:42:49.716Z,12.66
2022-10-30T15:45:55.024Z,12.55
2022-10-30T15:48:57.629Z,12.44
2022-10-30T15:52:03.075Z,12.57
2022-10-30T15:55:09.692Z,12.50
2022-10-30T15:58:17.516Z,12.49
2022-10-30T16:01:25.364Z,12.55
2022-10-30T16:04:35.700Z,12.41
2022-10-30T16:07:46.034Z,12.29
2022-10-30T16:10:50.021Z,12.36
2022-10-30T16:13:52.889Z,12.37
2022-10-30T16:16:59.833Z,12.35
2022-10-30T16:20:04.057Z,12.48
2022-10-30T16:23:07.384Z,12.50
2022-10-30T16:26:25.401Z,12.44
2022-10-30T16:29:29.908Z,12.32
2022-10-30T16:32:32.476Z,12.47
2022-10-30T16:35:34.939Z,12.44
2022-10-30T16:38:38.259Z,12.34
2022-10-30T16:41:40.742Z,12.38
2022-10-30T16:44:43.439Z,12.34
2022-10-30T16:48:08.448Z,12.50
2022-10-30T16:51:16.402Z,12.51
2022-10-30T16:54:26.074Z,12.52
2022-10-30T16:57:35.039Z,12.56
2022-10-30T17:00:40.055Z,12.59
2022-10-30T17:03:42.849Z,12.59
2022-10-30T17:06:45.694Z,12.62
2022-10-30T17:09:50.076Z,12.62
2022-10-30T17:13:12.927Z,12.66
2022-10-30T17:16:27.016Z,12.59
2022-10-30T17:19:32.759Z,12.50
2022-10-30T17:22:35.438Z,12.66
2022-10-30T17:25:39.395Z,12.61
2022-10-30T17:28:42.975Z,12.61
2022-10-30T17:31:45.538Z,12.48
2022-10-30T17:34:57.757Z,12.51
2022-10-30T17:38:03.150Z,12.70
2022-10-30T17:41:07.042Z,12.57
2022-10-30T17:44:19.635Z,12.56
2022-10-30T17:47:23.746Z,12.59
2022-10-30T17:50:26.421Z,12.60
2022-10-30T17:53:29.020Z,12.60
2022-10-30T17:56:33.485Z,12.68
2022-10-30T17:59:36.128Z,12.62
2022-10-30T18:02:41.285Z,12.56
2022-10-30T18:05:44.697Z,12.59
2022-10-30T18:08:50.558Z,12.60
2022-10-30T18:11:53.458Z,12.64
2022-10-30T18:14:56.200Z,12.58
2022-10-30T18:17:58.898Z,12.57
2022-10-30T18:21:01.397Z,12.68
2022-10-30T18:24:10.449Z,12.54
2022-10-30T18:27:13.077Z,12.60
2022-10-30T18:30:16.042Z,12.57
2022-10-30T18:33:18.688Z,12.54
2022-10-30T18:36:23.974Z,12.48
2022-10-30T18:39:26.399Z,12.51
2022-10-30T18:42:28.788Z,12.52
2022-10-30T18:45:37.537Z,12.59
2022-10-30T18:48:40.877Z,12.47
2022-10-30T18:51:43.457Z,12.43
2022-10-30T18:54:46.015Z,12.45
2022-10-30T18:57:50.356Z,12.43
2022-10-30T19:01:11.070Z,12.47
2022-10-30T19:04:18.010Z,12.35
2022-10-30T19:07:24.316Z,12.40
2022-10-30T19:10:29.438Z,12.41
2022-10-30T19:13:32.480Z,12.49
2022-10-30T19:16:34.944Z,12.48
2022-10-30T19:19:37.561Z,12.52
2022-10-30T19:22:40.610Z,12.47
2022-10-30T19:25:44.451Z,12.46
2022-10-30T19:28:48.167Z,12.42
2022-10-30T19:31:50.778Z,12.46
2022-10-30T19:34:53.398Z,12.46
2022-10-30T19:37:56.547Z,12.50
2022-10-30T19:41:00.125Z,12.59
2022-10-30T19:44:02.792Z,12.53
2022-10-30T19:47:05.338Z,12.54
2022-10-30T19:50:35.136Z,12.53
2022-10-30T19:53:38.316Z,12.51
2022-10-30T19:56:43.414Z,12.53
2022-10-30T19:59:46.116Z,12.52
2022-10-30T20:02:48.819Z,12.51
2022-10-30T20:05:51.466Z,12.53
2022-10-30T20:08:54.045Z,12.61
2022-10-30T20:11:56.742Z,12.62
2022-10-30T20:14:59.325Z,12.61
2022-10-30T20:18:16.340Z,12.56
2022-10-30T20:21:19.350Z,12.45
2022-10-30T20:24:23.125Z,12.46
2022-10-30T20:27:26.564Z,12.44
2022-10-30T20:30:29.541Z,12.44
2022-10-30T20:33:32.452Z,12.42
2022-10-30T20:36:34.785Z,12.39
2022-10-30T20:39:37.328Z,12.38
2022-10-30T20:42:40.517Z,12.37
2022-10-30T20:45:43.116Z,12.38
2022-10-30T20:48:45.861Z,12.43
2022-10-30T20:51:48.444Z,12.46
2022-10-30T20:54:50.946Z,12.48
2022-10-30T20:57:53.458Z,12.52
2022-10-30T21:00:59.359Z,12.47
2022-10-30T21:04:02.440Z,12.45
2022-10-30T21:07:04.945Z,12.50
2022-10-30T21:10:07.541Z,12.48
2022-10-30T21:13:11.612Z,12.45
2022-10-30T21:16:14.277Z,12.44
2022-10-30T21:19:16.846Z,12.46
2022-10-30T21:22:19.420Z,12.49
2022-10-30T21:25:21.763Z,12.44
2022-10-30T21:28:24.175Z,12.45
2022-10-30T21:31:26.777Z,12.45
2022-10-30T21:34:29.163Z,12.47
2022-10-30T21:37:37.770Z,12.45
2022-10-30T21:40:40.128Z,12.36
2022-10-30T21:43:43.161Z,12.34
2022-10-30T21:46:45.522Z,12.34
2022-10-30T21:49:48.050Z,12.33
2022-10-30T21:52:50.416Z,12.22
2022-10-30T21:55:52.822Z,12.21
2022-10-30T21:58:56.478Z,12.28
2022-10-30T22:01:58.978Z,12.29
2022-10-30T22:05:01.413Z,12.29
2022-10-30T22:08:03.941Z,12.29
2022-10-30T22:11:10.836Z,12.30
2022-10-30T22:14:13.370Z,12.22
2022-10-30T22:17:15.879Z,12.27
2022-10-30T22:20:18.433Z,12.19
2022-10-30T22:23:20.880Z,12.15
2022-10-30T22:26:23.890Z,12.04
2022-10-30T22:29:26.227Z,12.07
2022-10-30T22:32:28.652Z,12.03
2022-10-30T22:35:31.004Z,12.08
2022-10-30T22:38:34.180Z,12.07
2022-10-30T22:41:38.272Z,12.11
2022-10-30T22:44:40.907Z,12.10
2022-10-30T22:47:43.266Z,12.12
2022-10-30T22:50:45.612Z,12.07
2022-10-30T22:53:56.342Z,12.08
2022-10-30T22:57:01.225Z,12.05
2022-10-30T23:00:05.821Z,12.04
2022-10-30T23:03:08.655Z,12.09
2022-10-30T23:06:11.786Z,11.97
2022-10-30T23:09:19.463Z,12.04
2022-10-30T23:12:21.871Z,12.03
2022-10-30T23:15:24.726Z,11.99
2022-10-30T23:18:27.203Z,12.05
2022-10-30T23:21:31.796Z,12.08
2022-10-30T23:24:34.242Z,12.11
2022-10-30T23:27:36.623Z,12.14
2022-10-30T23:30:42.503Z,12.11
2022-10-30T23:33:49.659Z,12.08
2022-10-30T23:36:53.519Z,12.06
2022-10-30T23:39:57.892Z,12.08
2022-10-30T23:43:00.707Z,12.10
2022-10-30T23:46:03.338Z,12.09
2022-10-30T23:49:05.987Z,12.01
2022-10-30T23:52:08.364Z,12.01
2022-10-30T23:55:10.873Z,11.92
2022-10-30T23:58:13.276Z,11.92
